createdAt,value
2022-11-30T09:35:32.690Z,343.58
2022-11-30T09:37:59.385Z,355.17
2022-11-30T09:40:34.002Z,329.15
2022-11-30T09:43:29.493Z,369.27
2022-11-30T09:46:03.611Z,337.48
2022-11-30T09:48:52.464Z,322.48
2022-11-30T09:51:26.564Z,366.48
2022-11-30T09:54:08.602Z,340.83
2022-11-30T09:56:40.509Z,356.05
2022-11-30T09:59:13.719Z,349.10
2022-11-30T10:01:45.020Z,367.33
2022-11-30T10:04:21.832Z,330.10
2022-11-30T10:07:25.855Z,325.02
2022-11-30T10:13:11.826Z,348.92
2022-11-30T10:15:57.180Z,327.58
2022-11-30T10:18:54.896Z,343.15
2022-11-30T10:21:48.048Z,342.58
2022-11-30T10:24:33.655Z,338.67
2022-11-30T10:27:16.422Z,307.58
2022-11-30T10:29:43.949Z,318.83
2022-11-30T10:32:19.616Z,318.38
2022-11-30T10:34:54.439Z,312.15
2022-11-30T10:37:33.282Z,322.02
2022-11-30T10:40:04.823Z,302.83
2022-11-30T10:43:15.623Z,329.67
2022-11-30T10:45:48.714Z,304.80
2022-11-30T10:48:20.731Z,315.75
2022-11-30T10:50:47.961Z,282.95
2022-11-30T10:53:14.792Z,295.52
2022-11-30T10:55:45.532Z,298.75
2022-11-30T10:58:23.174Z,274.45
2022-11-30T11:01:09.876Z,269.20
2022-11-30T11:03:37.826Z,277.38
2022-11-30T11:06:14.143Z,278.45
2022-11-30T11:08:42.314Z,267.23
2022-11-30T11:11:27.629Z,248.68
2022-11-30T11:14:09.731Z,255.57
2022-11-30T11:16:53.948Z,246.07
2022-11-30T11:19:32.654Z,243.95
2022-11-30T11:22:06.536Z,260.23
2022-11-30T11:24:34.116Z,242.68
2022-11-30T11:27:01.074Z,238.02
2022-11-30T11:29:32.275Z,231.82
2022-11-30T11:32:24.702Z,250.68
2022-11-30T11:34:52.070Z,239.20
2022-11-30T11:37:28.888Z,247.05
2022-11-30T11:40:02.573Z,246.57
2022-11-30T11:42:34.101Z,239.15
2022-11-30T11:45:02.489Z,236.80
2022-11-30T11:47:39.319Z,222.73
2022-11-30T11:51:04.412Z,222.70
2022-11-30T11:53:24.967Z,209.65
2022-11-30T11:56:02.671Z,210.55
2022-11-30T11:58:55.934Z,205.10
2022-11-30T12:01:42.787Z,205.95
2022-11-30T12:05:07.233Z,203.80
2022-11-30T12:07:36.792Z,210.32
2022-11-30T12:13:38.687Z,195.55
2022-11-30T12:19:02.827Z,207.25
2022-11-30T12:22:07.087Z,196.27
2022-11-30T12:24:36.536Z,206.27
2022-11-30T12:27:21.327Z,193.20
2022-11-30T12:29:54.309Z,194.80
2022-11-30T12:32:45.843Z,199.25
2022-11-30T12:35:46.097Z,200.73
2022-11-30T12:38:25.563Z,197.57
2022-11-30T12:41:00.984Z,191.48
2022-11-30T12:43:39.228Z,180.23
2022-11-30T12:46:37.463Z,183.63
2022-11-30T12:49:19.319Z,179.32
2022-11-30T12:51:57.880Z,192.82
2022-11-30T12:55:02.241Z,170.82
2022-11-30T12:57:39.229Z,173.00
2022-11-30T13:03:10.925Z,162.68
2022-11-30T13:05:48.885Z,162.35
2022-11-30T13:08:23.782Z,169.25
2022-11-30T13:10:56.292Z,188.85
2022-11-30T13:13:28.826Z,155.50
2022-11-30T13:15:57.901Z,148.00
2022-11-30T13:18:25.776Z,141.20
2022-11-30T13:21:07.483Z,139.95
2022-11-30T13:24:00.487Z,141.38
2022-11-30T13:26:45.578Z,134.75
2022-11-30T13:29:27.382Z,136.10
2022-11-30T13:32:22.500Z,137.05
2022-11-30T13:35:29.346Z,125.05
2022-11-30T13:38:34.655Z,127.05
2022-11-30T13:41:01.276Z,128.35
2022-11-30T13:43:31.466Z,127.78
2022-11-30T13:46:13.941Z,126.88
2022-11-30T13:48:45.686Z,119.30
2022-11-30T13:51:33.167Z,117.47
2022-11-30T13:54:41.183Z,114.22
2022-11-30T13:57:24.441Z,112.18
2022-11-30T13:59:59.363Z,104.18
2022-11-30T14:02:51.979Z,119.03
2022-11-30T14:05:18.759Z,125.18
2022-11-30T14:07:47.150Z,118.38
2022-11-30T14:10:38.993Z,122.40
2022-11-30T14:13:09.314Z,121.45
2022-11-30T14:15:38.988Z,109.03
2022-11-30T14:18:19.116Z,118.90
2022-11-30T14:20:50.577Z,117.55
2022-11-30T14:23:43.767Z,120.32
2022-11-30T14:26:22.344Z,122.55
2022-11-30T14:29:12.574Z,118.03
2022-11-30T14:31:56.964Z,116.28
2022-11-30T14:34:30.672Z,123.95
2022-11-30T14:37:06.648Z,115.65
2022-11-30T14:39:35.301Z,121.13
2022-11-30T14:42:04.519Z,115.03
2022-11-30T14:44:40.542Z,115.10
2022-11-30T14:47:20.393Z,108.25
2022-11-30T14:49:48.800Z,114.40
2022-11-30T14:52:46.259Z,124.63
2022-11-30T14:55:43.779Z,110.60
2022-11-30T14:58:26.934Z,103.47
2022-11-30T15:00:53.906Z,130.60
2022-11-30T15:03:25.986Z,117.65
2022-11-30T15:06:01.980Z,126.72
2022-11-30T15:08:41.213Z,125.70
2022-11-30T15:11:11.467Z,123.15
2022-11-30T15:13:41.695Z,127.00
2022-11-30T15:16:29.005Z,125.10
2022-11-30T15:18:58.508Z,125.65
2022-11-30T15:21:29.131Z,119.10
2022-11-30T15:23:58.147Z,109.90
2022-11-30T15:26:36.612Z,113.82
2022-11-30T15:29:12.991Z,121.45
2022-11-30T15:31:45.876Z,110.88
2022-11-30T15:34:42.390Z,116.60
2022-11-30T15:37:09.069Z,115.30
2022-11-30T15:39:37.202Z,114.15
2022-11-30T15:42:04.965Z,115.35
2022-11-30T15:44:39.406Z,113.00
2022-11-30T15:47:22.774Z,118.65
2022-11-30T15:49:56.057Z,125.43
2022-11-30T15:52:28.228Z,105.60
2022-11-30T15:54:57.278Z,110.97
2022-11-30T15:57:26.330Z,116.38
2022-11-30T16:00:06.062Z,111.38
2022-11-30T16:02:35.018Z,122.05
2022-11-30T16:05:22.247Z,105.18
2022-11-30T16:07:55.758Z,104.03
2022-11-30T16:10:26.908Z,116.18
2022-11-30T16:12:54.862Z,107.90
2022-11-30T16:15:25.357Z,101.40
